sensor_id;sensor_type;location;lat;lon;timestamp;pressure;altitude;pressure_sealevel;temperature;humidity
73952;BME280;62304;47.662;18.324;2023-09-08T00:03:01;100953.50;;;15.66;88.90
73952;BME280;62304;47.662;18.324;2023-09-08T00:06:04;100958.25;;;15.62;88.50
73952;BME280;62304;47.662;18.324;2023-09-08T00:09:07;100957.88;;;15.63;89.09
73952;BME280;62304;47.662;18.324;2023-09-08T00:12:10;100959.56;;;15.78;89.01
73952;BME280;62304;47.662;18.324;2023-09-08T00:15:13;100963.50;;;15.70;88.04
73952;BME280;62304;47.662;18.324;2023-09-08T00:18:16;100961.94;;;15.76;87.87
73952;BME280;62304;47.662;18.324;2023-09-08T00:21:19;100954.25;;;15.63;88.29
73952;BME280;62304;47.662;18.324;2023-09-08T00:24:22;100951.87;;;15.61;88.71
73952;BME280;62304;47.662;18.324;2023-09-08T00:27:25;100949.31;;;15.42;90.41
73952;BME280;62304;47.662;18.324;2023-09-08T00:30:28;100948.97;;;15.51;90.87
73952;BME280;62304;47.662;18.324;2023-09-08T00:33:31;100939.81;;;15.50;89.85
73952;BME280;62304;47.662;18.324;2023-09-08T00:36:36;100944.22;;;15.55;89.85
73952;BME280;62304;47.662;18.324;2023-09-08T00:39:39;100948.56;;;15.45;89.85
73952;BME280;62304;47.662;18.324;2023-09-08T00:42:42;100944.56;;;15.46;89.50
73952;BME280;62304;47.662;18.324;2023-09-08T00:45:45;100939.69;;;15.36;90.13
73952;BME280;62304;47.662;18.324;2023-09-08T00:48:49;100941.59;;;15.29;89.96
73952;BME280;62304;47.662;18.324;2023-09-08T00:51:51;100933.97;;;15.22;90.82
73952;BME280;62304;47.662;18.324;2023-09-08T00:54:55;100936.00;;;15.29;89.98
73952;BME280;62304;47.662;18.324;2023-09-08T00:57:59;100932.53;;;15.39;89.62
73952;BME280;62304;47.662;18.324;2023-09-08T01:01:02;100931.72;;;15.38;89.58
73952;BME280;62304;47.662;18.324;2023-09-08T01:04:05;100926.84;;;15.32;89.54
73952;BME280;62304;47.662;18.324;2023-09-08T01:07:09;100925.69;;;15.33;89.46
73952;BME280;62304;47.662;18.324;2023-09-08T01:10:14;100925.94;;;15.17;89.86
73952;BME280;62304;47.662;18.324;2023-09-08T01:13:18;100922.25;;;15.06;90.91
73952;BME280;62304;47.662;18.324;2023-09-08T01:16:21;100924.50;;;15.34;90.03
73952;BME280;62304;47.662;18.324;2023-09-08T01:19:25;100927.22;;;15.27;89.40
73952;BME280;62304;47.662;18.324;2023-09-08T01:22:50;100916.13;;;15.37;89.36
73952;BME280;62304;47.662;18.324;2023-09-08T01:26:10;100926.50;;;15.33;88.77
73952;BME280;62304;47.662;18.324;2023-09-08T01:29:16;100917.34;;;15.36;88.44
73952;BME280;62304;47.662;18.324;2023-09-08T01:32:21;100923.59;;;15.26;89.83
73952;BME280;62304;47.662;18.324;2023-09-08T01:35:24;100917.97;;;15.19;89.30
73952;BME280;62304;47.662;18.324;2023-09-08T01:38:28;100922.63;;;15.05;90.54
73952;BME280;62304;47.662;18.324;2023-09-08T01:41:30;100916.66;;;15.03;91.11
73952;BME280;62304;47.662;18.324;2023-09-08T01:44:36;100917.94;;;15.16;90.15
73952;BME280;62304;47.662;18.324;2023-09-08T01:47:39;100918.22;;;15.00;90.76
73952;BME280;62304;47.662;18.324;2023-09-08T01:50:42;100919.53;;;15.13;90.23
73952;BME280;62304;47.662;18.324;2023-09-08T01:53:48;100915.37;;;14.97;89.95
73952;BME280;62304;47.662;18.324;2023-09-08T01:56:51;100914.59;;;14.96;90.33
73952;BME280;62304;47.662;18.324;2023-09-08T01:59:53;100915.84;;;15.02;90.23
73952;BME280;62304;47.662;18.324;2023-09-08T02:02:57;100917.59;;;14.77;91.53
73952;BME280;62304;47.662;18.324;2023-09-08T02:06:00;100928.69;;;14.70;91.83
73952;BME280;62304;47.662;18.324;2023-09-08T02:09:03;100929.47;;;14.67;91.79
73952;BME280;62304;47.662;18.324;2023-09-08T02:12:06;100928.25;;;14.65;90.96
73952;BME280;62304;47.662;18.324;2023-09-08T02:15:09;100923.22;;;14.81;89.57
73952;BME280;62304;47.662;18.324;2023-09-08T02:18:14;100926.25;;;14.65;91.53
73952;BME280;62304;47.662;18.324;2023-09-08T02:21:17;100924.03;;;14.45;92.95
73952;BME280;62304;47.662;18.324;2023-09-08T02:24:20;100919.78;;;14.58;91.81
73952;BME280;62304;47.662;18.324;2023-09-08T02:27:23;100915.84;;;14.59;90.86
73952;BME280;62304;47.662;18.324;2023-09-08T02:30:26;100924.31;;;14.69;90.69
73952;BME280;62304;47.662;18.324;2023-09-08T02:33:30;100924.66;;;14.64;90.82
73952;BME280;62304;47.662;18.324;2023-09-08T02:36:33;100931.78;;;14.62;90.79
73952;BME280;62304;47.662;18.324;2023-09-08T02:39:36;100931.78;;;14.62;90.90
73952;BME280;62304;47.662;18.324;2023-09-08T02:42:39;100942.16;;;14.61;91.49
73952;BME280;62304;47.662;18.324;2023-09-08T02:45:43;100933.44;;;14.66;91.50
73952;BME280;62304;47.662;18.324;2023-09-08T02:48:50;100931.13;;;14.75;90.92
73952;BME280;62304;47.662;18.324;2023-09-08T02:51:54;100938.16;;;14.59;90.63
73952;BME280;62304;47.662;18.324;2023-09-08T02:54:56;100938.06;;;14.52;91.85
73952;BME280;62304;47.662;18.324;2023-09-08T02:57:59;100930.19;;;14.61;91.21
73952;BME280;62304;47.662;18.324;2023-09-08T03:01:12;100933.03;;;14.64;91.13
73952;BME280;62304;47.662;18.324;2023-09-08T03:04:17;100933.75;;;14.58;91.38
73952;BME280;62304;47.662;18.324;2023-09-08T03:07:20;100931.66;;;14.48;91.87
73952;BME280;62304;47.662;18.324;2023-09-08T03:10:23;100934.16;;;14.56;91.69
73952;BME280;62304;47.662;18.324;2023-09-08T03:13:26;100929.69;;;14.52;91.21
73952;BME280;62304;47.662;18.324;2023-09-08T03:16:31;100931.50;;;14.34;92.88
73952;BME280;62304;47.662;18.324;2023-09-08T03:19:34;100930.81;;;14.44;91.74
73952;BME280;62304;47.662;18.324;2023-09-08T03:22:39;100919.84;;;14.28;92.83
73952;BME280;62304;47.662;18.324;2023-09-08T03:25:42;100929.84;;;14.29;92.29
73952;BME280;62304;47.662;18.324;2023-09-08T03:28:45;100928.78;;;14.41;92.28
73952;BME280;62304;47.662;18.324;2023-09-08T03:31:48;100935.44;;;14.29;92.64
73952;BME280;62304;47.662;18.324;2023-09-08T03:34:51;100932.34;;;14.38;92.13
73952;BME280;62304;47.662;18.324;2023-09-08T03:37:54;100938.75;;;14.42;90.84
73952;BME280;62304;47.662;18.324;2023-09-08T03:40:57;100940.19;;;14.29;90.97
73952;BME280;62304;47.662;18.324;2023-09-08T03:44:00;100943.88;;;14.36;91.42
73952;BME280;62304;47.662;18.324;2023-09-08T03:47:03;100938.59;;;14.28;91.49
73952;BME280;62304;47.662;18.324;2023-09-08T03:50:07;100936.69;;;14.35;91.36
73952;BME280;62304;47.662;18.324;2023-09-08T03:53:11;100938.59;;;14.28;91.26
73952;BME280;62304;47.662;18.324;2023-09-08T03:56:14;100938.56;;;14.24;92.18
73952;BME280;62304;47.662;18.324;2023-09-08T03:59:18;100944.34;;;14.12;91.82
73952;BME280;62304;47.662;18.324;2023-09-08T04:02:20;100939.16;;;14.11;91.49
73952;BME280;62304;47.662;18.324;2023-09-08T04:05:24;100941.47;;;14.05;92.63
73952;BME280;62304;47.662;18.324;2023-09-08T04:08:27;100954.56;;;14.01;91.87
73952;BME280;62304;47.662;18.324;2023-09-08T04:11:31;100951.00;;;14.04;92.73
73952;BME280;62304;47.662;18.324;2023-09-08T04:14:33;100941.09;;;14.07;92.89
73952;BME280;62304;47.662;18.324;2023-09-08T04:17:37;100944.66;;;14.04;92.73
73952;BME280;62304;47.662;18.324;2023-09-08T04:20:41;100945.41;;;14.01;93.33
73952;BME280;62304;47.662;18.324;2023-09-08T04:23:44;100945.91;;;14.10;92.54
73952;BME280;62304;47.662;18.324;2023-09-08T04:26:47;100960.38;;;13.89;94.04
73952;BME280;62304;47.662;18.324;2023-09-08T04:29:50;100949.66;;;13.91;93.18
73952;BME280;62304;47.662;18.324;2023-09-08T04:32:53;100948.41;;;13.89;94.01
73952;BME280;62304;47.662;18.324;2023-09-08T04:35:57;100946.75;;;13.84;93.84
73952;BME280;62304;47.662;18.324;2023-09-08T04:39:00;100947.53;;;13.81;93.86
73952;BME280;62304;47.662;18.324;2023-09-08T04:42:04;100944.59;;;13.71;96.13
73952;BME280;62304;47.662;18.324;2023-09-08T04:45:07;100949.03;;;13.75;95.67
73952;BME280;62304;47.662;18.324;2023-09-08T04:48:11;100944.19;;;13.72;95.68
73952;BME280;62304;47.662;18.324;2023-09-08T04:51:15;100952.03;;;13.63;95.01
73952;BME280;62304;47.662;18.324;2023-09-08T04:54:18;100949.22;;;13.60;97.09
73952;BME280;62304;47.662;18.324;2023-09-08T04:57:22;100951.22;;;13.89;95.89
73952;BME280;62304;47.662;18.324;2023-09-08T05:00:26;100950.22;;;14.33;95.41
73952;BME280;62304;47.662;18.324;2023-09-08T05:03:30;100952.63;;;14.71;94.17
73952;BME280;62304;47.662;18.324;2023-09-08T05:06:34;100951.50;;;15.19;90.45
73952;BME280;62304;47.662;18.324;2023-09-08T05:09:37;100954.94;;;15.49;89.49
73952;BME280;62304;47.662;18.324;2023-09-08T05:12:41;100947.94;;;15.76;89.73
73952;BME280;62304;47.662;18.324;2023-09-08T05:15:44;100962.94;;;16.15;88.87
73952;BME280;62304;47.662;18.324;2023-09-08T05:18:51;100957.94;;;16.59;87.93
73952;BME280;62304;47.662;18.324;2023-09-08T05:21:55;100961.28;;;17.07;84.50
73952;BME280;62304;47.662;18.324;2023-09-08T05:24:58;100958.84;;;16.98;84.12
73952;BME280;62304;47.662;18.324;2023-09-08T05:28:01;100973.25;;;17.11;84.33
73952;BME280;62304;47.662;18.324;2023-09-08T05:31:05;100962.91;;;17.39;83.09
73952;BME280;62304;47.662;18.324;2023-09-08T05:34:09;100962.47;;;17.55;82.60
73952;BME280;62304;47.662;18.324;2023-09-08T05:37:13;100963.25;;;17.17;83.01
73952;BME280;62304;47.662;18.324;2023-09-08T05:40:18;100977.28;;;17.06;83.84
73952;BME280;62304;47.662;18.324;2023-09-08T05:43:25;100973.22;;;16.79;84.99
73952;BME280;62304;47.662;18.324;2023-09-08T05:46:29;100971.63;;;16.78;85.47
73952;BME280;62304;47.662;18.324;2023-09-08T05:49:32;100978.00;;;16.79;85.74
73952;BME280;62304;47.662;18.324;2023-09-08T05:52:40;100984.44;;;16.86;85.46
73952;BME280;62304;47.662;18.324;2023-09-08T05:55:43;100975.63;;;16.91;85.42
73952;BME280;62304;47.662;18.324;2023-09-08T05:58:46;100976.03;;;16.86;85.98
73952;BME280;62304;47.662;18.324;2023-09-08T06:01:50;100978.44;;;16.91;85.71
73952;BME280;62304;47.662;18.324;2023-09-08T06:04:53;100981.69;;;17.00;85.76
73952;BME280;62304;47.662;18.324;2023-09-08T06:07:56;100987.28;;;17.07;85.69
73952;BME280;62304;47.662;18.324;2023-09-08T06:11:09;100984.47;;;17.11;85.87
73952;BME280;62304;47.662;18.324;2023-09-08T06:14:12;100984.47;;;17.14;86.03
73952;BME280;62304;47.662;18.324;2023-09-08T06:17:15;100978.50;;;17.30;85.53
73952;BME280;62304;47.662;18.324;2023-09-08T06:20:19;100974.47;;;17.38;85.02
73952;BME280;62304;47.662;18.324;2023-09-08T06:23:23;100985.34;;;17.53;84.00
73952;BME280;62304;47.662;18.324;2023-09-08T06:26:26;100980.13;;;17.62;83.31
73952;BME280;62304;47.662;18.324;2023-09-08T06:29:30;100980.50;;;17.78;82.42
73952;BME280;62304;47.662;18.324;2023-09-08T06:32:33;100986.50;;;17.80;83.48
73952;BME280;62304;47.662;18.324;2023-09-08T06:35:36;100988.50;;;17.87;82.82
73952;BME280;62304;47.662;18.324;2023-09-08T06:38:39;100986.09;;;17.92;83.02
73952;BME280;62304;47.662;18.324;2023-09-08T06:41:44;100978.00;;;18.08;81.30
73952;BME280;62304;47.662;18.324;2023-09-08T06:44:48;100976.75;;;18.23;81.51
73952;BME280;62304;47.662;18.324;2023-09-08T06:47:52;100978.72;;;18.40;81.35
73952;BME280;62304;47.662;18.324;2023-09-08T06:50:58;100987.13;;;18.54;81.25
73952;BME280;62304;47.662;18.324;2023-09-08T06:54:02;100974.56;;;18.73;79.64
73952;BME280;62304;47.662;18.324;2023-09-08T06:57:07;100981.25;;;18.96;80.34
73952;BME280;62304;47.662;18.324;2023-09-08T07:00:10;100975.66;;;19.51;78.24
73952;BME280;62304;47.662;18.324;2023-09-08T07:03:14;100970.00;;;20.61;75.94
73952;BME280;62304;47.662;18.324;2023-09-08T07:06:17;100958.66;;;21.71;72.23
73952;BME280;62304;47.662;18.324;2023-09-08T07:09:20;100968.50;;;22.64;68.68
73952;BME280;62304;47.662;18.324;2023-09-08T07:12:24;100971.63;;;23.40;65.99
73952;BME280;62304;47.662;18.324;2023-09-08T07:15:27;100954.94;;;24.19;62.22
73952;BME280;62304;47.662;18.324;2023-09-08T07:18:30;100952.03;;;24.63;62.21
73952;BME280;62304;47.662;18.324;2023-09-08T07:21:37;100952.31;;;25.19;59.97
73952;BME280;62304;47.662;18.324;2023-09-08T07:24:41;100959.28;;;25.64;59.01
73952;BME280;62304;47.662;18.324;2023-09-08T07:27:44;100949.31;;;26.06;57.46
73952;BME280;62304;47.662;18.324;2023-09-08T07:30:47;100949.59;;;26.21;55.51
73952;BME280;62304;47.662;18.324;2023-09-08T07:33:51;100947.59;;;26.52;53.35
73952;BME280;62304;47.662;18.324;2023-09-08T07:36:54;100955.59;;;26.87;51.53
73952;BME280;62304;47.662;18.324;2023-09-08T07:39:57;100951.25;;;27.13;52.07
73952;BME280;62304;47.662;18.324;2023-09-08T07:43:01;100952.22;;;27.50;51.62
73952;BME280;62304;47.662;18.324;2023-09-08T07:46:05;100940.41;;;27.78;49.89
73952;BME280;62304;47.662;18.324;2023-09-08T07:49:08;100938.84;;;27.95;49.52
73952;BME280;62304;47.662;18.324;2023-09-08T07:52:11;100937.38;;;27.73;50.21
73952;BME280;62304;47.662;18.324;2023-09-08T07:55:15;100933.25;;;27.74;48.39
73952;BME280;62304;47.662;18.324;2023-09-08T07:58:18;100934.06;;;28.55;48.55
73952;BME280;62304;47.662;18.324;2023-09-08T08:01:22;100936.13;;;28.55;48.57
73952;BME280;62304;47.662;18.324;2023-09-08T08:04:26;100936.66;;;29.04;47.11
73952;BME280;62304;47.662;18.324;2023-09-08T08:07:29;100937.53;;;28.59;45.84
73952;BME280;62304;47.662;18.324;2023-09-08T08:15:37;100937.28;;;29.64;44.37
73952;BME280;62304;47.662;18.324;2023-09-08T08:19:17;100935.34;;;30.46;41.82
73952;BME280;62304;47.662;18.324;2023-09-08T08:22:21;100934.16;;;30.52;42.81
73952;BME280;62304;47.662;18.324;2023-09-08T08:25:24;100931.59;;;30.54;41.01
73952;BME280;62304;47.662;18.324;2023-09-08T08:28:28;100927.34;;;30.93;40.64
73952;BME280;62304;47.662;18.324;2023-09-08T08:31:31;100932.22;;;31.71;39.34
73952;BME280;62304;47.662;18.324;2023-09-08T08:34:36;100932.97;;;31.86;39.61
73952;BME280;62304;47.662;18.324;2023-09-08T08:37:40;100932.25;;;31.91;39.69
73952;BME280;62304;47.662;18.324;2023-09-08T08:40:43;100931.84;;;32.43;38.77
73952;BME280;62304;47.662;18.324;2023-09-08T08:43:47;100923.84;;;32.78;37.57
73952;BME280;62304;47.662;18.324;2023-09-08T08:46:54;100920.00;;;32.16;35.24
73952;BME280;62304;47.662;18.324;2023-09-08T08:49:59;100917.53;;;31.83;36.48
73952;BME280;62304;47.662;18.324;2023-09-08T08:53:02;100899.13;;;32.15;36.28
73952;BME280;62304;47.662;18.324;2023-09-08T08:56:06;100903.00;;;32.58;36.04
73952;BME280;62304;47.662;18.324;2023-09-08T08:59:11;100900.59;;;32.82;35.28
73952;BME280;62304;47.662;18.324;2023-09-08T09:02:15;100897.22;;;32.83;35.90
73952;BME280;62304;47.662;18.324;2023-09-08T09:05:18;100900.47;;;32.96;36.33
73952;BME280;62304;47.662;18.324;2023-09-08T09:08:22;100904.94;;;32.72;36.58
73952;BME280;62304;47.662;18.324;2023-09-08T09:11:26;100894.28;;;32.47;36.92
73952;BME280;62304;47.662;18.324;2023-09-08T09:14:32;100885.22;;;32.85;37.13
73952;BME280;62304;47.662;18.324;2023-09-08T09:17:36;100889.44;;;33.26;35.91
73952;BME280;62304;47.662;18.324;2023-09-08T09:20:40;100890.84;;;33.36;35.19
73952;BME280;62304;47.662;18.324;2023-09-08T09:23:44;100897.28;;;33.67;33.63
73952;BME280;62304;47.662;18.324;2023-09-08T09:26:52;100885.09;;;33.36;35.47
73952;BME280;62304;47.662;18.324;2023-09-08T09:29:58;100878.44;;;33.61;34.53
73952;BME280;62304;47.662;18.324;2023-09-08T09:33:02;100879.75;;;33.65;35.65
73952;BME280;62304;47.662;18.324;2023-09-08T09:36:06;100879.75;;;34.35;32.21
73952;BME280;62304;47.662;18.324;2023-09-08T09:39:09;100876.63;;;34.55;33.40
73952;BME280;62304;47.662;18.324;2023-09-08T09:42:12;100866.59;;;35.38;31.58
73952;BME280;62304;47.662;18.324;2023-09-08T09:45:18;100871.78;;;33.91;32.35
73952;BME280;62304;47.662;18.324;2023-09-08T09:48:21;100872.41;;;34.39;31.80
73952;BME280;62304;47.662;18.324;2023-09-08T09:51:26;100872.16;;;34.65;31.17
73952;BME280;62304;47.662;18.324;2023-09-08T09:54:29;100875.06;;;34.76;28.00
73952;BME280;62304;47.662;18.324;2023-09-08T09:57:32;100870.44;;;33.87;28.16
73952;BME280;62304;47.662;18.324;2023-09-08T10:00:36;100872.50;;;33.81;29.63
73952;BME280;62304;47.662;18.324;2023-09-08T10:03:40;100860.06;;;33.53;30.30
73952;BME280;62304;47.662;18.324;2023-09-08T10:06:43;100862.41;;;34.07;28.74
73952;BME280;62304;47.662;18.324;2023-09-08T10:09:47;100855.09;;;33.53;29.96
73952;BME280;62304;47.662;18.324;2023-09-08T10:12:55;100863.00;;;33.64;28.58
73952;BME280;62304;47.662;18.324;2023-09-08T10:16:00;100858.50;;;34.16;30.00
73952;BME280;62304;47.662;18.324;2023-09-08T10:19:08;100858.53;;;34.43;29.76
73952;BME280;62304;47.662;18.324;2023-09-08T10:22:12;100850.37;;;34.25;28.02
73952;BME280;62304;47.662;18.324;2023-09-08T10:25:20;100844.84;;;34.00;29.19
73952;BME280;62304;47.662;18.324;2023-09-08T10:28:25;100844.66;;;34.47;28.60
73952;BME280;62304;47.662;18.324;2023-09-08T10:31:29;100842.97;;;33.97;28.66
73952;BME280;62304;47.662;18.324;2023-09-08T10:34:33;100839.56;;;33.87;29.60
73952;BME280;62304;47.662;18.324;2023-09-08T10:37:37;100836.25;;;34.22;28.60
73952;BME280;62304;47.662;18.324;2023-09-08T10:40:43;100834.34;;;33.97;28.79
73952;BME280;62304;47.662;18.324;2023-09-08T10:43:46;100834.13;;;34.22;28.71
73952;BME280;62304;47.662;18.324;2023-09-08T10:46:57;100832.03;;;34.17;29.20
73952;BME280;62304;47.662;18.324;2023-09-08T10:50:01;100831.84;;;33.57;29.48
73952;BME280;62304;47.662;18.324;2023-09-08T10:53:13;100836.78;;;34.48;29.62
73952;BME280;62304;47.662;18.324;2023-09-08T10:56:17;100823.44;;;34.45;28.18
73952;BME280;62304;47.662;18.324;2023-09-08T10:59:27;100821.09;;;34.43;28.70
73952;BME280;62304;47.662;18.324;2023-09-08T11:02:37;100819.78;;;34.94;27.30
73952;BME280;62304;47.662;18.324;2023-09-08T11:05:42;100818.97;;;33.47;29.38
73952;BME280;62304;47.662;18.324;2023-09-08T11:08:46;100818.69;;;34.25;27.89
73952;BME280;62304;47.662;18.324;2023-09-08T11:11:50;100818.75;;;34.47;27.29
73952;BME280;62304;47.662;18.324;2023-09-08T11:14:53;100804.06;;;34.62;28.19
73952;BME280;62304;47.662;18.324;2023-09-08T11:18:04;100807.47;;;34.82;26.17
73952;BME280;62304;47.662;18.324;2023-09-08T11:21:08;100794.88;;;34.74;28.93
73952;BME280;62304;47.662;18.324;2023-09-08T11:24:13;100809.31;;;34.52;27.31
73952;BME280;62304;47.662;18.324;2023-09-08T11:27:17;100790.69;;;34.86;25.89
73952;BME280;62304;47.662;18.324;2023-09-08T11:30:21;100798.78;;;34.93;26.56
73952;BME280;62304;47.662;18.324;2023-09-08T11:33:23;100791.81;;;35.46;25.99
73952;BME280;62304;47.662;18.324;2023-09-08T11:36:29;100791.47;;;34.92;25.51
73952;BME280;62304;47.662;18.324;2023-09-08T11:39:36;100793.03;;;34.99;27.05
73952;BME280;62304;47.662;18.324;2023-09-08T11:42:41;100789.91;;;34.69;27.81
73952;BME280;62304;47.662;18.324;2023-09-08T11:45:48;100795.38;;;35.79;25.44
73952;BME280;62304;47.662;18.324;2023-09-08T11:48:51;100799.47;;;35.32;27.28
73952;BME280;62304;47.662;18.324;2023-09-08T11:51:55;100790.94;;;36.13;25.48
73952;BME280;62304;47.662;18.324;2023-09-08T11:54:58;100784.50;;;35.91;26.19
73952;BME280;62304;47.662;18.324;2023-09-08T11:58:08;100788.25;;;35.80;26.78
73952;BME280;62304;47.662;18.324;2023-09-08T12:01:12;100782.41;;;35.40;26.36
73952;BME280;62304;47.662;18.324;2023-09-08T12:04:18;100768.50;;;35.95;27.19
73952;BME280;62304;47.662;18.324;2023-09-08T12:07:22;100778.09;;;35.63;28.35
73952;BME280;62304;47.662;18.324;2023-09-08T12:10:26;100771.97;;;35.83;26.86
73952;BME280;62304;47.662;18.324;2023-09-08T12:13:29;100767.50;;;35.25;27.70
73952;BME280;62304;47.662;18.324;2023-09-08T12:16:32;100769.53;;;35.46;28.08
73952;BME280;62304;47.662;18.324;2023-09-08T12:19:35;100765.91;;;35.35;27.68
73952;BME280;62304;47.662;18.324;2023-09-08T12:22:51;100765.09;;;35.40;27.40
73952;BME280;62304;47.662;18.324;2023-09-08T12:25:56;100760.50;;;34.98;27.52
73952;BME280;62304;47.662;18.324;2023-09-08T12:29:00;100756.28;;;35.10;28.43
73952;BME280;62304;47.662;18.324;2023-09-08T12:32:03;100750.22;;;35.14;28.31
73952;BME280;62304;47.662;18.324;2023-09-08T12:35:07;100753.50;;;34.50;28.65
73952;BME280;62304;47.662;18.324;2023-09-08T12:38:10;100749.91;;;35.34;27.81
73952;BME280;62304;47.662;18.324;2023-09-08T12:41:13;100740.38;;;35.50;27.05
73952;BME280;62304;47.662;18.324;2023-09-08T12:44:16;100742.37;;;35.14;28.95
73952;BME280;62304;47.662;18.324;2023-09-08T12:47:20;100740.22;;;35.31;27.92
73952;BME280;62304;47.662;18.324;2023-09-08T12:50:22;100732.94;;;35.08;28.32
73952;BME280;62304;47.662;18.324;2023-09-08T12:53:26;100735.09;;;34.75;27.65
73952;BME280;62304;47.662;18.324;2023-09-08T12:56:28;100738.31;;;35.45;27.30
73952;BME280;62304;47.662;18.324;2023-09-08T12:59:31;100735.53;;;35.69;27.11
73952;BME280;62304;47.662;18.324;2023-09-08T13:02:34;100728.47;;;35.13;28.81
73952;BME280;62304;47.662;18.324;2023-09-08T13:05:38;100720.69;;;34.86;28.36
73952;BME280;62304;47.662;18.324;2023-09-08T13:08:42;100720.22;;;34.82;28.95
73952;BME280;62304;47.662;18.324;2023-09-08T13:11:45;100718.87;;;34.72;29.19
73952;BME280;62304;47.662;18.324;2023-09-08T13:14:48;100706.88;;;34.02;29.13
73952;BME280;62304;47.662;18.324;2023-09-08T13:17:52;100716.31;;;33.97;28.88
73952;BME280;62304;47.662;18.324;2023-09-08T13:20:55;100718.31;;;33.58;29.91
73952;BME280;62304;47.662;18.324;2023-09-08T13:23:59;100707.41;;;34.33;28.61
73952;BME280;62304;47.662;18.324;2023-09-08T13:27:02;100708.72;;;33.99;29.33
73952;BME280;62304;47.662;18.324;2023-09-08T13:30:11;100710.81;;;33.82;29.64
73952;BME280;62304;47.662;18.324;2023-09-08T13:33:14;100700.88;;;34.11;29.65
73952;BME280;62304;47.662;18.324;2023-09-08T13:36:19;100703.75;;;34.05;29.54
73952;BME280;62304;47.662;18.324;2023-09-08T13:39:22;100696.44;;;34.26;28.77
73952;BME280;62304;47.662;18.324;2023-09-08T13:42:27;100697.22;;;34.05;28.95
73952;BME280;62304;47.662;18.324;2023-09-08T13:45:30;100684.63;;;34.19;28.67
73952;BME280;62304;47.662;18.324;2023-09-08T13:48:34;100685.16;;;34.39;28.44
73952;BME280;62304;47.662;18.324;2023-09-08T13:51:38;100685.94;;;34.12;29.53
73952;BME280;62304;47.662;18.324;2023-09-08T13:54:44;100676.78;;;34.03;29.55
73952;BME280;62304;47.662;18.324;2023-09-08T13:57:48;100666.34;;;33.89;29.54
73952;BME280;62304;47.662;18.324;2023-09-08T14:00:58;100669.38;;;33.47;30.45
73952;BME280;62304;47.662;18.324;2023-09-08T14:04:04;100669.16;;;33.72;29.92
73952;BME280;62304;47.662;18.324;2023-09-08T14:07:13;100667.56;;;33.66;30.19
73952;BME280;62304;47.662;18.324;2023-09-08T14:10:20;100660.16;;;33.26;30.11
73952;BME280;62304;47.662;18.324;2023-09-08T14:13:27;100659.59;;;33.11;30.12
73952;BME280;62304;47.662;18.324;2023-09-08T14:16:32;100656.66;;;32.95;30.56
73952;BME280;62304;47.662;18.324;2023-09-08T14:19:36;100660.81;;;32.94;30.75
73952;BME280;62304;47.662;18.324;2023-09-08T14:22:40;100652.16;;;32.77;31.09
73952;BME280;62304;47.662;18.324;2023-09-08T14:25:43;100643.81;;;32.06;31.99
73952;BME280;62304;47.662;18.324;2023-09-08T14:28:47;100643.41;;;32.24;31.80
73952;BME280;62304;47.662;18.324;2023-09-08T14:31:52;100655.94;;;31.85;32.37
73952;BME280;62304;47.662;18.324;2023-09-08T14:34:56;100646.22;;;32.13;32.21
73952;BME280;62304;47.662;18.324;2023-09-08T14:38:00;100652.25;;;32.52;31.73
73952;BME280;62304;47.662;18.324;2023-09-08T14:41:04;100644.63;;;32.07;32.15
73952;BME280;62304;47.662;18.324;2023-09-08T14:44:07;100647.34;;;31.90;32.05
73952;BME280;62304;47.662;18.324;2023-09-08T14:47:12;100643.06;;;31.75;32.08
73952;BME280;62304;47.662;18.324;2023-09-08T14:50:16;100641.88;;;31.61;32.22
73952;BME280;62304;47.662;18.324;2023-09-08T14:56:54;100644.28;;;30.97;33.72
73952;BME280;62304;47.662;18.324;2023-09-08T14:59:58;100648.69;;;30.38;34.53
73952;BME280;62304;47.662;18.324;2023-09-08T15:06:50;100649.56;;;29.66;35.70
73952;BME280;62304;47.662;18.324;2023-09-08T15:09:54;100642.84;;;29.40;36.39
73952;BME280;62304;47.662;18.324;2023-09-08T15:12:58;100640.84;;;29.17;36.81
73952;BME280;62304;47.662;18.324;2023-09-08T15:16:02;100636.97;;;29.06;37.15
73952;BME280;62304;47.662;18.324;2023-09-08T15:19:07;100640.44;;;29.10;37.33
73952;BME280;62304;47.662;18.324;2023-09-08T15:22:11;100644.47;;;29.03;37.46
73952;BME280;62304;47.662;18.324;2023-09-08T15:25:17;100647.53;;;28.91;37.92
73952;BME280;62304;47.662;18.324;2023-09-08T15:28:24;100641.19;;;28.96;37.85
73952;BME280;62304;47.662;18.324;2023-09-08T15:31:27;100624.38;;;28.74;37.50
73952;BME280;62304;47.662;18.324;2023-09-08T15:34:31;100633.31;;;28.44;37.95
73952;BME280;62304;47.662;18.324;2023-09-08T15:37:35;100637.50;;;28.25;37.14
73952;BME280;62304;47.662;18.324;2023-09-08T15:41:13;100633.19;;;28.06;36.84
73952;BME280;62304;47.662;18.324;2023-09-08T15:44:20;100637.81;;;27.94;37.62
73952;BME280;62304;47.662;18.324;2023-09-08T15:47:24;100648.81;;;27.78;35.94
73952;BME280;62304;47.662;18.324;2023-09-08T15:50:28;100642.62;;;27.79;35.98
73952;BME280;62304;47.662;18.324;2023-09-08T15:53:32;100644.37;;;27.68;36.78
73952;BME280;62304;47.662;18.324;2023-09-08T16:00:22;100639.53;;;27.50;36.90
73952;BME280;62304;47.662;18.324;2023-09-08T16:03:28;100637.34;;;27.36;37.75
73952;BME280;62304;47.662;18.324;2023-09-08T16:06:32;100640.50;;;27.29;37.65
73952;BME280;62304;47.662;18.324;2023-09-08T16:09:38;100639.75;;;27.20;37.90